Time;durP1;ratioP1;P1;durP2;ratioP2;P2;SDS_P1;SDS_P2;PMS_P1;PMS_P2;Temp;Humidity;BMP_temperature;BMP_pressure;BME280_temperature;BME280_humidity;BME280_pressure;Samples;Min_cycle;Max_cycle;Signal;HPM_P1;HPM_P2
2021/06/09 00:00:04;;;;;;;25.87;23.60;;;18.60;99.90;;;;;;4997126;28;20460;-80
2021/06/09 00:02:30;;;;;;;26.70;24.20;;;18.50;99.90;;;;;;4999045;28;20505;-80
2021/06/09 00:04:56;;;;;;;26.90;24.33;;;18.50;99.90;;;;;;4996962;28;21169;-82
2021/06/09 00:07:23;;;;;;;24.90;22.50;;;18.50;99.90;;;;;;5000140;28;20529;-81
2021/06/09 00:09:51;;;;;;;24.83;22.43;;;18.40;99.90;;;;;;4999466;28;20468;-80
2021/06/09 00:12:17;;;;;;;24.87;22.47;;;18.40;99.90;;;;;;4998988;28;20546;-82
2021/06/09 00:14:43;;;;;;;23.87;21.60;;;18.40;99.90;;;;;;5000315;28;20465;-81
2021/06/09 00:17:10;;;;;;;26.27;23.80;;;18.30;99.90;;;;;;4996606;28;20595;-82
2021/06/09 00:19:36;;;;;;;25.37;22.90;;;18.30;99.90;;;;;;4997251;28;20465;-81
2021/06/09 00:22:04;;;;;;;24.77;22.47;;;18.30;99.90;;;;;;4996151;28;20495;-81
2021/06/09 00:24:30;;;;;;;25.97;23.20;;;18.30;99.90;;;;;;5002786;28;20463;-82
2021/06/09 00:26:58;;;;;;;23.90;21.60;;;18.30;99.90;;;;;;4995690;28;20466;-81
2021/06/09 00:29:24;;;;;;;24.80;22.70;;;18.30;99.90;;;;;;4995573;28;20480;-81
2021/06/09 00:31:51;;;;;;;24.20;21.80;;;18.20;99.90;;;;;;5000397;28;20968;-82
2021/06/09 00:34:17;;;;;;;23.80;21.53;;;18.20;99.90;;;;;;4996075;28;20465;-81
2021/06/09 00:36:43;;;;;;;22.37;20.27;;;18.20;99.90;;;;;;4994768;28;20473;-81
2021/06/09 00:39:10;;;;;;;22.93;20.77;;;18.20;99.90;;;;;;4993611;28;20473;-81
2021/06/09 00:41:37;;;;;;;23.53;21.43;;;18.20;99.90;;;;;;4996635;28;21300;-81
2021/06/09 00:44:05;;;;;;;21.67;19.60;;;18.20;99.90;;;;;;4994628;28;20465;-81
2021/06/09 00:46:34;;;;;;;22.33;20.33;;;18.10;99.90;;;;;;4998380;28;21318;-82
2021/06/09 00:49:00;;;;;;;23.07;20.87;;;18.10;99.90;;;;;;4991655;28;21088;-82
2021/06/09 00:51:26;;;;;;;24.10;21.90;;;18.00;99.90;;;;;;4998251;28;20554;-80
2021/06/09 00:53:55;;;;;;;23.77;21.47;;;18.00;99.90;;;;;;5001270;28;20502;-83
2021/06/09 00:56:23;;;;;;;24.37;22.07;;;18.00;99.90;;;;;;4993761;28;20565;-80
2021/06/09 00:58:51;;;;;;;22.50;20.40;;;18.00;99.90;;;;;;4993012;28;20457;-81
2021/06/09 01:01:21;;;;;;;24.83;22.30;;;17.90;99.90;;;;;;4997411;28;20499;-81
2021/06/09 01:03:48;;;;;;;24.20;21.90;;;17.90;99.90;;;;;;4989453;28;20536;-81
2021/06/09 01:06:14;;;;;;;23.27;21.20;;;17.90;99.90;;;;;;5000913;28;20468;-81
2021/06/09 01:08:42;;;;;;;24.10;21.80;;;17.90;99.90;;;;;;4991574;28;20487;-80
2021/06/09 01:11:11;;;;;;;22.60;20.63;;;17.90;99.90;;;;;;4997230;28;21052;-81
2021/06/09 01:13:38;;;;;;;22.90;20.80;;;17.90;99.90;;;;;;4999595;28;20457;-81
2021/06/09 01:16:05;;;;;;;23.53;21.40;;;17.90;99.90;;;;;;4998128;28;20467;-81
2021/06/09 01:18:33;;;;;;;22.87;20.67;;;17.80;99.90;;;;;;4993984;28;20516;-80
2021/06/09 01:21:01;;;;;;;25.10;22.73;;;17.80;99.90;;;;;;4997124;28;20547;-81
2021/06/09 01:23:30;;;;;;;21.37;19.50;;;17.80;99.90;;;;;;4999257;28;20552;-82
2021/06/09 01:25:58;;;;;;;22.87;20.57;;;17.80;99.90;;;;;;4998174;28;20472;-80
2021/06/09 01:28:25;;;;;;;20.77;18.97;;;17.80;99.90;;;;;;4996015;28;20464;-81
2021/06/09 01:30:52;;;;;;;21.90;19.77;;;17.80;99.90;;;;;;4996154;28;20499;-82
2021/06/09 01:33:19;;;;;;;20.83;18.77;;;17.70;99.90;;;;;;4993367;28;20962;-81
2021/06/09 01:35:45;;;;;;;21.00;18.77;;;17.70;99.90;;;;;;4994629;28;20465;-82
2021/06/09 01:38:12;;;;;;;20.07;18.07;;;17.70;99.90;;;;;;4994691;28;20454;-81
2021/06/09 01:40:40;;;;;;;21.47;19.43;;;17.60;99.90;;;;;;4999349;28;20912;-83
2021/06/09 01:43:07;;;;;;;19.47;17.57;;;17.60;99.90;;;;;;4995317;28;20505;-81
2021/06/09 01:45:35;;;;;;;21.17;19.27;;;17.60;99.90;;;;;;4997700;28;20471;-81
2021/06/09 01:48:03;;;;;;;20.23;18.33;;;17.50;99.90;;;;;;4998314;28;20794;-81
2021/06/09 01:50:30;;;;;;;21.10;19.17;;;17.50;99.90;;;;;;4996602;28;20464;-81
2021/06/09 01:52:57;;;;;;;21.70;19.60;;;17.50;99.90;;;;;;4997565;28;20912;-80
2021/06/09 01:55:26;;;;;;;22.07;19.67;;;17.50;99.90;;;;;;4994670;28;20473;-81
2021/06/09 01:57:53;;;;;;;20.67;18.67;;;17.50;99.90;;;;;;4994722;28;21019;-82
2021/06/09 02:00:24;;;;;;;23.10;20.23;;;17.40;99.90;;;;;;5000011;28;20548;-81
2021/06/09 02:02:53;;;;;;;19.87;18.03;;;17.40;99.90;;;;;;4988883;28;20598;-81
2021/06/09 02:05:20;;;;;;;20.57;18.47;;;17.40;99.90;;;;;;4997353;28;20462;-82
2021/06/09 02:07:46;;;;;;;21.67;19.53;;;17.40;99.90;;;;;;4994604;28;20462;-82
2021/06/09 02:10:15;;;;;;;18.60;16.80;;;17.30;99.90;;;;;;4998158;28;21247;-81
2021/06/09 02:12:44;;;;;;;21.53;17.90;;;17.30;99.90;;;;;;4996968;28;20557;-81
2021/06/09 02:15:15;;;;;;;19.33;17.20;;;17.30;99.90;;;;;;4997658;28;20464;-80
2021/06/09 02:17:46;;;;;;;18.13;16.57;;;17.20;99.90;;;;;;4997447;28;20796;-81
2021/06/09 02:20:14;;;;;;;19.60;17.50;;;17.20;99.90;;;;;;4996349;28;20465;-80
2021/06/09 02:22:40;;;;;;;18.93;17.13;;;17.20;99.90;;;;;;4991594;28;20582;-81
2021/06/09 02:25:08;;;;;;;20.30;18.40;;;17.20;99.90;;;;;;4995194;28;20470;-83
2021/06/09 02:27:36;;;;;;;23.70;19.17;;;17.10;99.90;;;;;;4994448;28;20513;-81
2021/06/09 02:30:05;;;;;;;23.77;21.37;;;17.10;99.90;;;;;;4991615;28;20484;-81
2021/06/09 02:32:32;;;;;;;23.23;20.63;;;17.10;99.90;;;;;;4992063;28;21642;-81
2021/06/09 02:34:58;;;;;;;23.27;21.07;;;17.10;99.90;;;;;;4999026;28;20462;-81
2021/06/09 02:37:25;;;;;;;24.07;21.67;;;17.00;99.90;;;;;;4995679;28;20458;-82
2021/06/09 02:39:51;;;;;;;25.83;23.13;;;17.00;99.90;;;;;;4993871;28;20463;-82
2021/06/09 02:42:18;;;;;;;26.83;22.73;;;17.00;99.90;;;;;;4999155;28;20483;-81
2021/06/09 02:44:45;;;;;;;26.43;23.67;;;17.00;99.90;;;;;;4988439;28;20462;-82
2021/06/09 02:47:15;;;;;;;25.87;23.17;;;17.00;99.90;;;;;;4997562;28;20454;-81
2021/06/09 02:49:45;;;;;;;27.80;25.10;;;17.00;99.90;;;;;;4994800;28;20463;-81
2021/06/09 02:52:16;;;;;;;26.90;24.00;;;17.00;99.90;;;;;;4992273;28;20458;-80
2021/06/09 02:54:49;;;;;;;27.63;24.73;;;17.00;99.90;;;;;;5000806;28;20467;-82
2021/06/09 02:57:31;;;;;;;24.23;21.83;;;17.00;99.90;;;;;;4997010;28;21266;-81
2021/06/09 03:00:03;;;;;;;27.60;23.87;;;16.90;99.90;;;;;;4996983;28;20466;-81
2021/06/09 03:02:39;;;;;;;28.00;23.50;;;16.90;99.90;;;;;;4995134;28;21021;-81
2021/06/09 03:05:14;;;;;;;28.00;23.23;;;16.90;99.90;;;;;;4997294;28;20468;-80
2021/06/09 03:07:52;;;;;;;27.93;23.30;;;16.90;99.90;;;;;;4996617;28;20468;-81
2021/06/09 03:10:26;;;;;;;27.97;24.23;;;16.80;99.90;;;;;;4995791;28;20818;-82
2021/06/09 03:13:02;;;;;;;24.93;22.57;;;16.80;99.90;;;;;;4996624;28;20497;-83
2021/06/09 03:15:37;;;;;;;25.50;23.10;;;16.80;99.90;;;;;;5000374;28;20495;-81
2021/06/09 03:18:09;;;;;;;26.20;23.40;;;16.80;99.90;;;;;;4996031;28;20465;-81
2021/06/09 03:20:46;;;;;;;31.70;23.50;;;16.80;99.90;;;;;;4990077;28;20965;-81
2021/06/09 03:23:20;;;;;;;27.57;24.80;;;16.80;99.90;;;;;;4995683;28;20859;-83
2021/06/09 03:25:52;;;;;;;24.93;22.53;;;16.80;99.90;;;;;;4995220;28;20466;-81
2021/06/09 03:28:23;;;;;;;23.43;21.23;;;16.80;99.90;;;;;;4995073;28;20845;-80
2021/06/09 03:30:54;;;;;;;25.63;22.97;;;16.70;99.90;;;;;;4994539;28;20958;-80
2021/06/09 03:33:23;;;;;;;28.00;22.77;;;16.70;99.90;;;;;;4997724;28;20868;-81
2021/06/09 03:35:56;;;;;;;28.10;24.30;;;16.70;99.90;;;;;;4997561;28;20461;-81
2021/06/09 03:38:28;;;;;;;25.73;23.03;;;16.70;99.90;;;;;;4993419;28;20569;-82
2021/06/09 03:41:01;;;;;;;26.90;24.00;;;16.70;99.90;;;;;;4992724;28;20458;-82
2021/06/09 03:43:29;;;;;;;27.07;21.43;;;16.70;99.90;;;;;;4999173;28;20553;-80
2021/06/09 03:45:57;;;;;;;25.23;22.63;;;16.70;99.90;;;;;;4997936;28;20486;-81
2021/06/09 03:48:27;;;;;;;28.93;25.27;;;16.70;99.90;;;;;;4994582;28;20454;-81
2021/06/09 03:50:58;;;;;;;35.67;31.87;;;16.80;99.90;;;;;;4990182;28;20469;-80
2021/06/09 03:53:26;;;;;;;41.10;35.47;;;16.80;99.90;;;;;;4994093;28;20471;-81
2021/06/09 03:55:57;;;;;;;39.73;35.43;;;16.80;99.90;;;;;;4996067;28;20470;-81
2021/06/09 03:58:27;;;;;;;40.50;34.23;;;16.80;99.90;;;;;;4995423;28;20468;-81
2021/06/09 04:00:55;;;;;;;35.30;29.77;;;16.80;99.90;;;;;;4994564;28;20505;-82
2021/06/09 04:03:23;;;;;;;34.90;29.30;;;16.90;99.90;;;;;;4995912;28;20486;-81
2021/06/09 04:05:52;;;;;;;32.00;27.17;;;16.90;99.90;;;;;;4992417;28;20478;-80
2021/06/09 04:08:21;;;;;;;33.63;27.80;;;16.90;99.90;;;;;;4991386;28;20485;-81
2021/06/09 04:10:48;;;;;;;31.13;27.83;;;16.80;99.90;;;;;;4994247;28;20990;-82
2021/06/09 04:13:15;;;;;;;33.80;30.27;;;16.80;99.90;;;;;;4992066;28;20498;-82
2021/06/09 04:15:43;;;;;;;32.20;28.70;;;16.90;99.90;;;;;;4989634;28;20472;-80
2021/06/09 04:18:10;;;;;;;31.90;28.50;;;16.90;99.90;;;;;;4988356;28;20458;-82
2021/06/09 04:20:40;;;;;;;34.00;29.73;;;16.90;99.90;;;;;;4994202;28;20864;-81
2021/06/09 04:23:09;;;;;;;33.03;29.43;;;16.90;99.90;;;;;;4992656;28;20542;-81
2021/06/09 04:25:37;;;;;;;31.53;26.90;;;16.90;99.90;;;;;;4994698;28;20946;-81
2021/06/09 04:28:05;;;;;;;33.27;29.43;;;16.90;99.90;;;;;;4989266;28;20463;-80
2021/06/09 04:30:32;;;;;;;31.17;27.77;;;17.00;99.90;;;;;;4998772;28;20883;-80
2021/06/09 04:33:00;;;;;;;34.87;29.60;;;17.00;99.90;;;;;;4999324;28;20542;-81
2021/06/09 04:35:37;;;;;;;35.13;29.97;;;17.00;99.90;;;;;;4996220;28;20459;-81
2021/06/09 04:38:04;;;;;;;37.83;32.60;;;17.00;99.90;;;;;;4995874;28;20467;-81
2021/06/09 04:40:31;;;;;;;35.07;31.37;;;17.00;99.90;;;;;;4995647;28;20780;-82
2021/06/09 04:42:59;;;;;;;33.70;30.07;;;17.00;99.90;;;;;;4999722;28;20493;-82
2021/06/09 04:45:28;;;;;;;34.40;30.80;;;17.10;99.90;;;;;;4988999;28;20449;-81
2021/06/09 04:47:55;;;;;;;34.23;30.70;;;17.10;99.90;;;;;;4999016;28;20463;-81
2021/06/09 04:50:23;;;;;;;33.00;29.60;;;17.10;99.90;;;;;;4996998;28;20474;-80
2021/06/09 04:52:50;;;;;;;34.73;31.03;;;17.10;99.90;;;;;;4996164;28;20474;-81
2021/06/09 04:55:18;;;;;;;35.77;32.07;;;17.10;99.90;;;;;;4996296;28;20776;-80
2021/06/09 04:57:44;;;;;;;38.70;34.40;;;17.20;99.90;;;;;;4991766;28;21045;-81
2021/06/09 05:00:14;;;;;;;39.70;34.53;;;17.20;99.90;;;;;;4997751;28;21012;-81
2021/06/09 05:02:41;;;;;;;42.50;36.73;;;17.20;99.90;;;;;;4997834;28;21072;-81
2021/06/09 05:05:08;;;;;;;44.43;39.27;;;17.30;99.90;;;;;;4994001;28;20464;-82
2021/06/09 05:07:35;;;;;;;61.63;45.90;;;17.40;99.90;;;;;;4996855;28;20557;-81
2021/06/09 05:10:02;;;;;;;57.73;47.53;;;17.40;99.90;;;;;;4990413;28;20478;-81
2021/06/09 05:12:32;;;;;;;52.10;45.07;;;17.50;99.90;;;;;;4995712;28;20812;-82
2021/06/09 05:15:01;;;;;;;49.33;42.10;;;17.60;99.90;;;;;;4998402;28;20471;-82
2021/06/09 05:17:33;;;;;;;45.30;40.30;;;17.60;99.90;;;;;;5001620;28;20549;-82
2021/06/09 05:20:01;;;;;;;46.27;39.60;;;17.70;99.90;;;;;;4997079;28;21161;-81
2021/06/09 05:22:32;;;;;;;54.43;43.83;;;17.70;99.90;;;;;;4994045;28;20608;-81
2021/06/09 05:25:03;;;;;;;61.27;48.93;;;17.80;99.90;;;;;;4995475;28;21033;-81
2021/06/09 05:27:30;;;;;;;66.30;53.60;;;17.90;99.90;;;;;;4995462;28;20446;-81
2021/06/09 05:29:57;;;;;;;64.00;51.40;;;18.00;99.90;;;;;;5000183;28;20491;-81
2021/06/09 05:32:25;;;;;;;71.00;54.57;;;18.00;99.90;;;;;;5001097;28;20517;-81
2021/06/09 05:34:53;;;;;;;60.80;52.40;;;18.10;99.90;;;;;;4995563;28;20471;-81
2021/06/09 05:37:20;;;;;;;66.87;54.23;;;18.10;99.90;;;;;;4995646;28;20464;-81
2021/06/09 05:39:47;;;;;;;71.23;55.83;;;18.20;99.90;;;;;;4990387;28;20544;-81
2021/06/09 05:42:15;;;;;;;70.60;55.67;;;18.30;99.90;;;;;;4999402;28;20495;-82
2021/06/09 05:44:42;;;;;;;66.43;53.73;;;18.30;99.90;;;;;;5000386;28;20469;-82
2021/06/09 05:47:09;;;;;;;65.17;53.33;;;18.40;99.90;;;;;;4994191;28;20458;-81
2021/06/09 05:49:35;;;;;;;66.13;54.00;;;18.40;99.90;;;;;;4994233;28;20554;-81
2021/06/09 05:52:04;;;;;;;67.53;54.20;;;18.50;99.90;;;;;;4998282;28;20554;-81
2021/06/09 05:54:34;;;;;;;62.83;52.27;;;18.60;99.90;;;;;;4993177;28;20965;-82
2021/06/09 05:57:02;;;;;;;65.43;54.23;;;18.60;99.90;;;;;;4992369;28;20472;-71
2021/06/09 05:59:29;;;;;;;60.33;50.67;;;18.70;99.90;;;;;;5001014;28;20904;-71
2021/06/09 06:01:55;;;;;;;63.33;56.07;;;18.80;99.90;;;;;;4999146;28;20848;-70
2021/06/09 06:04:22;;;;;;;62.17;51.27;;;18.80;99.90;;;;;;4997470;28;20845;-71
2021/06/09 06:06:49;;;;;;;64.40;54.40;;;18.90;99.90;;;;;;4999279;28;20514;-71
2021/06/09 06:09:17;;;;;;;60.00;50.57;;;19.00;99.90;;;;;;4990903;28;21010;-71
2021/06/09 06:11:46;;;;;;;68.23;54.73;;;19.10;99.90;;;;;;4996160;28;20954;-71
2021/06/09 06:14:13;;;;;;;58.47;49.53;;;19.10;99.90;;;;;;4992523;28;20467;-71
2021/06/09 06:16:49;;;;;;;58.40;51.37;;;19.20;99.90;;;;;;4995550;28;20457;-71
2021/06/09 06:19:15;;;;;;;64.90;53.63;;;19.30;99.90;;;;;;4996957;28;20548;-71
2021/06/09 06:21:42;;;;;;;59.17;50.20;;;19.40;99.90;;;;;;4999179;28;20465;-71
2021/06/09 06:24:09;;;;;;;58.30;48.10;;;19.50;99.90;;;;;;4995317;28;20489;-71
2021/06/09 06:26:38;;;;;;;62.00;52.03;;;19.50;99.90;;;;;;4993707;28;20458;-71
2021/06/09 06:29:04;;;;;;;61.83;55.07;;;19.60;99.90;;;;;;4989765;28;20466;-71
2021/06/09 06:31:31;;;;;;;63.07;52.13;;;19.70;99.90;;;;;;4996808;28;20450;-71
2021/06/09 06:34:00;;;;;;;59.57;50.70;;;19.80;99.90;;;;;;4994386;28;20467;-71
2021/06/09 06:36:28;;;;;;;60.90;49.50;;;19.80;99.90;;;;;;4999473;28;20833;-71
2021/06/09 06:38:55;;;;;;;57.50;49.73;;;19.90;99.90;;;;;;5000842;28;20465;-71
2021/06/09 06:41:22;;;;;;;57.97;50.70;;;20.00;99.90;;;;;;4989593;28;20458;-71
2021/06/09 06:43:51;;;;;;;58.67;51.30;;;20.10;99.90;;;;;;4996475;28;21006;-71
2021/06/09 06:46:19;;;;;;;58.20;47.70;;;20.20;99.90;;;;;;4990511;28;21165;-71
2021/06/09 06:48:48;;;;;;;60.63;48.23;;;20.30;99.90;;;;;;4995093;28;20466;-71
2021/06/09 06:51:16;;;;;;;54.20;47.57;;;20.40;99.90;;;;;;4991595;28;20462;-71
2021/06/09 06:53:43;;;;;;;55.50;48.40;;;20.50;99.90;;;;;;4998705;28;20449;-71
2021/06/09 06:56:10;;;;;;;54.57;48.57;;;20.60;99.90;;;;;;4996248;28;20964;-71
2021/06/09 06:58:37;;;;;;;52.33;44.03;;;20.70;99.90;;;;;;4993145;28;20516;-71
2021/06/09 07:01:05;;;;;;;53.83;45.10;;;20.80;99.90;;;;;;4992454;28;20493;-71
2021/06/09 07:03:38;;;;;;;48.77;43.43;;;21.00;99.90;;;;;;4993842;28;20928;-71
2021/06/09 07:06:07;;;;;;;48.57;43.37;;;21.00;99.90;;;;;;4997018;28;20481;-71
2021/06/09 07:08:37;;;;;;;47.23;41.70;;;21.20;99.90;;;;;;5001489;28;20457;-71
2021/06/09 07:11:03;;;;;;;48.57;42.60;;;21.20;99.90;;;;;;4997177;28;20560;-72
2021/06/09 07:13:31;;;;;;;44.90;38.87;;;21.30;99.90;;;;;;4991258;28;20458;-71
2021/06/09 07:16:00;;;;;;;52.57;41.23;;;21.40;99.90;;;;;;4995883;28;21013;-71
2021/06/09 07:18:30;;;;;;;49.90;42.50;;;21.50;99.90;;;;;;4994149;28;20481;-71
2021/06/09 07:20:57;;;;;;;46.83;41.73;;;21.60;99.90;;;;;;4999124;28;21215;-71
2021/06/09 07:23:23;;;;;;;45.07;38.70;;;21.70;99.90;;;;;;4989598;28;20861;-71
2021/06/09 07:25:51;;;;;;;45.20;39.30;;;21.80;99.90;;;;;;4991247;28;20458;-71
2021/06/09 07:28:19;;;;;;;43.10;37.73;;;21.90;99.90;;;;;;4997286;28;20973;-72
2021/06/09 07:30:46;;;;;;;49.27;39.13;;;22.00;99.90;;;;;;5002208;28;20474;-71
2021/06/09 07:33:14;;;;;;;53.43;39.57;;;22.10;99.90;;;;;;4997603;28;20470;-71
2021/06/09 07:35:42;;;;;;;66.57;37.80;;;22.20;99.90;;;;;;4992460;28;20520;-71
2021/06/09 07:38:14;;;;;;;47.13;33.40;;;22.30;99.90;;;;;;4995126;28;20953;-71
2021/06/09 07:40:44;;;;;;;49.13;35.40;;;22.40;99.90;;;;;;4993793;28;20514;-71
2021/06/09 07:43:13;;;;;;;42.40;37.23;;;22.40;99.90;;;;;;4998756;28;20500;-71
2021/06/09 07:45:42;;;;;;;36.23;32.53;;;22.50;99.90;;;;;;4998215;28;20458;-71
2021/06/09 07:48:09;;;;;;;41.00;33.23;;;22.60;99.90;;;;;;4996572;28;21063;-71
2021/06/09 07:50:41;;;;;;;38.57;33.43;;;22.70;99.90;;;;;;4993673;28;20462;-72
2021/06/09 07:53:11;;;;;;;33.70;30.10;;;22.80;99.90;;;;;;4995163;28;20466;-71
2021/06/09 07:55:41;;;;;;;31.87;27.97;;;22.90;99.90;;;;;;4991206;28;20570;-71
2021/06/09 07:58:08;;;;;;;34.43;28.20;;;23.00;99.90;;;;;;4994418;28;20561;-73
2021/06/09 08:00:35;;;;;;;30.77;27.03;;;23.10;99.90;;;;;;4992045;28;20461;-71
2021/06/09 08:03:02;;;;;;;28.13;25.23;;;23.20;99.90;;;;;;4997093;28;20516;-71
2021/06/09 08:05:29;;;;;;;28.67;25.57;;;23.30;99.90;;;;;;4990796;28;20469;-71
2021/06/09 08:07:56;;;;;;;29.13;25.60;;;23.40;99.90;;;;;;4993463;28;20454;-71
2021/06/09 08:10:24;;;;;;;30.73;26.63;;;23.50;99.90;;;;;;4997132;28;20556;-71
2021/06/09 08:12:51;;;;;;;35.93;25.93;;;23.60;99.90;;;;;;4999421;28;20462;-70
2021/06/09 08:15:18;;;;;;;27.60;21.67;;;23.70;99.90;;;;;;4994236;28;20470;-71
2021/06/09 08:17:45;;;;;;;26.40;23.60;;;23.80;99.90;;;;;;4993887;28;20837;-71
2021/06/09 08:20:14;;;;;;;26.27;23.00;;;23.90;99.90;;;;;;4996939;28;21237;-73
2021/06/09 08:22:44;;;;;;;29.10;24.80;;;24.10;99.90;;;;;;4991442;28;20560;-71
2021/06/09 08:25:13;;;;;;;29.07;25.33;;;24.20;99.90;;;;;;5001455;28;20492;-71
2021/06/09 08:27:41;;;;;;;27.80;24.90;;;24.30;99.90;;;;;;5002282;28;20493;-71
2021/06/09 08:30:10;;;;;;;26.00;23.10;;;24.40;99.90;;;;;;4994603;28;20491;-71
2021/06/09 08:32:36;;;;;;;29.53;22.80;;;24.50;99.90;;;;;;4996489;28;20457;-71
2021/06/09 08:35:04;;;;;;;25.97;23.17;;;24.60;99.90;;;;;;4997089;28;20470;-71
2021/06/09 08:37:30;;;;;;;25.73;22.83;;;24.80;99.90;;;;;;4998079;28;20535;-71
2021/06/09 08:39:57;;;;;;;22.93;20.43;;;24.80;99.90;;;;;;5001299;28;20880;-71
2021/06/09 08:42:25;;;;;;;27.30;24.00;;;25.00;99.90;;;;;;5002374;28;20481;-71
2021/06/09 08:44:53;;;;;;;30.20;23.73;;;25.10;99.90;;;;;;4994648;28;20910;-71
2021/06/09 08:47:22;;;;;;;28.17;23.30;;;25.20;99.90;;;;;;4997849;28;20458;-71
2021/06/09 08:49:49;;;;;;;26.00;23.13;;;25.30;99.90;;;;;;4996133;28;20551;-71
2021/06/09 08:52:16;;;;;;;27.10;24.37;;;25.40;99.90;;;;;;4993336;28;20470;-71
2021/06/09 08:54:45;;;;;;;31.23;23.90;;;25.50;99.90;;;;;;5002228;28;20826;-71
2021/06/09 08:57:13;;;;;;;26.90;24.00;;;25.60;99.90;;;;;;4991968;28;20498;-72
2021/06/09 08:59:40;;;;;;;26.67;23.83;;;25.60;99.90;;;;;;4998207;28;20492;-71
2021/06/09 09:02:09;;;;;;;27.67;22.97;;;25.80;99.90;;;;;;4993763;28;20488;-71
2021/06/09 09:04:37;;;;;;;28.90;24.43;;;25.90;99.90;;;;;;4993119;28;20470;-71
2021/06/09 09:07:04;;;;;;;26.90;23.93;;;26.00;99.90;;;;;;5001754;28;20865;-72
2021/06/09 09:09:30;;;;;;;29.43;22.37;;;25.90;99.90;;;;;;4996223;28;20458;-72
2021/06/09 09:11:57;;;;;;;23.83;21.33;;;25.80;99.90;;;;;;4996845;28;20481;-72
2021/06/09 09:14:23;;;;;;;23.83;21.07;;;25.60;99.90;;;;;;4997378;28;20973;-72
2021/06/09 09:17:04;;;;;;;22.23;18.83;;;25.40;99.90;;;;;;4996536;28;20492;-71
2021/06/09 09:19:36;;;;;;;16.63;14.93;;;25.30;99.90;;;;;;4993357;28;20461;-72
2021/06/09 09:22:03;;;;;;;22.80;20.40;;;25.40;99.90;;;;;;4996777;28;20501;-71
2021/06/09 09:24:42;;;;;;;32.00;20.00;;;25.50;99.90;;;;;;5000634;28;20493;-71
2021/06/09 09:27:09;;;;;;;18.57;16.63;;;25.60;99.90;;;;;;4994758;28;20469;-72
2021/06/09 09:29:35;;;;;;;21.20;19.17;;;25.80;99.90;;;;;;4997090;28;20561;-72
2021/06/09 09:32:05;;;;;;;21.33;19.03;;;25.90;99.90;;;;;;4997103;28;20462;-75
2021/06/09 09:34:36;;;;;;;18.87;16.83;;;26.00;99.90;;;;;;4993429;28;20544;-72
2021/06/09 09:37:05;;;;;;;19.73;17.43;;;26.10;99.90;;;;;;4998764;28;20553;-72
2021/06/09 09:39:31;;;;;;;20.57;18.60;;;26.30;99.90;;;;;;5000751;28;20461;-71
2021/06/09 09:42:15;;;;;;;17.50;15.80;;;26.30;99.90;;;;;;4999211;28;20980;-72
2021/06/09 09:44:41;;;;;;;19.27;15.47;;;26.30;99.90;;;;;;4995749;28;20555;-72
2021/06/09 09:47:14;;;;;;;19.40;16.70;;;26.30;99.90;;;;;;4999876;28;20500;-72
2021/06/09 09:49:42;;;;;;;17.63;16.03;;;26.30;99.90;;;;;;4991111;28;20553;-72
2021/06/09 09:52:09;;;;;;;17.07;15.47;;;26.40;99.90;;;;;;4998547;28;20476;-72
2021/06/09 09:54:37;;;;;;;16.53;15.03;;;26.50;99.90;;;;;;4997725;28;20476;-72
2021/06/09 09:57:06;;;;;;;15.17;13.67;;;26.60;99.90;;;;;;4999888;28;20472;-72
2021/06/09 09:59:33;;;;;;;16.40;14.43;;;26.70;99.90;;;;;;4996812;28;20457;-71
2021/06/09 10:02:02;;;;;;;16.93;15.17;;;26.90;99.90;;;;;;4996561;28;20552;-72
2021/06/09 10:04:31;;;;;;;18.87;17.00;;;27.00;99.90;;;;;;4997159;28;20482;-72
2021/06/09 10:06:59;;;;;;;17.13;15.47;;;27.10;99.90;;;;;;4991668;28;20457;-72
2021/06/09 10:09:27;;;;;;;17.53;15.80;;;27.20;99.90;;;;;;5000269;28;20472;-72
2021/06/09 10:11:56;;;;;;;15.80;14.40;;;27.30;99.90;;;;;;4995508;28;20464;-71
2021/06/09 10:14:25;;;;;;;16.30;14.70;;;27.30;99.90;;;;;;4994352;28;20462;-71
2021/06/09 10:16:58;;;;;;;19.43;14.50;;;27.40;99.70;;;;;;4999428;28;20470;-72
2021/06/09 10:19:28;;;;;;;18.97;15.57;;;27.50;99.90;;;;;;4995468;28;20528;-72
2021/06/09 10:21:57;;;;;;;16.50;14.90;;;27.60;99.70;;;;;;4999588;28;20481;-72
2021/06/09 10:24:26;;;;;;;15.33;13.93;;;27.60;99.60;;;;;;4999608;28;20493;-72
2021/06/09 10:26:56;;;;;;;15.67;14.10;;;27.60;99.20;;;;;;4993539;28;20453;-71
2021/06/09 10:29:23;;;;;;;17.10;15.40;;;27.60;99.10;;;;;;4992950;28;20485;-74
2021/06/09 10:31:53;;;;;;;17.50;15.90;;;27.80;99.10;;;;;;4991461;28;20479;-72
2021/06/09 10:34:21;;;;;;;16.13;14.63;;;28.00;99.20;;;;;;4996180;28;20798;-72
2021/06/09 10:36:50;;;;;;;18.00;16.20;;;28.10;99.00;;;;;;4999181;28;20748;-72
2021/06/09 10:39:18;;;;;;;17.47;15.80;;;28.20;97.40;;;;;;4994656;28;20576;-72
2021/06/09 10:41:48;;;;;;;16.17;14.60;;;28.20;96.90;;;;;;4997755;28;20462;-71
2021/06/09 10:44:19;;;;;;;15.10;13.53;;;28.00;97.40;;;;;;4997415;28;20540;-75
2021/06/09 10:46:47;;;;;;;15.87;14.27;;;28.00;97.80;;;;;;5000665;28;20455;-72
2021/06/09 10:49:17;;;;;;;16.17;14.60;;;27.90;98.80;;;;;;4994631;28;20549;-72
2021/06/09 10:51:45;;;;;;;14.10;12.90;;;27.90;98.80;;;;;;5000045;28;20493;-82
2021/06/09 10:54:14;;;;;;;13.43;12.30;;;27.90;98.70;;;;;;4994149;28;20973;-83
2021/06/09 10:56:43;;;;;;;14.03;12.73;;;28.00;99.00;;;;;;4996678;28;20493;-83
2021/06/09 10:59:13;;;;;;;13.97;12.60;;;28.10;99.20;;;;;;4994350;28;20493;-83
2021/06/09 11:01:40;;;;;;;16.47;14.37;;;28.10;99.00;;;;;;4997795;28;20909;-83
2021/06/09 11:04:07;;;;;;;14.23;12.87;;;28.00;97.80;;;;;;5001764;28;20481;-83
2021/06/09 11:06:45;;;;;;;13.27;12.07;;;28.00;97.70;;;;;;4995116;28;20473;-83
2021/06/09 11:09:14;;;;;;;14.07;12.77;;;28.10;97.20;;;;;;4998633;28;20464;-83
2021/06/09 11:11:41;;;;;;;18.43;11.37;;;28.20;97.10;;;;;;4998302;28;20552;-83
2021/06/09 11:14:24;;;;;;;11.37;10.30;;;28.30;96.60;;;;;;4990698;28;20469;-83
2021/06/09 11:16:52;;;;;;;10.37;9.50;;;28.40;95.60;;;;;;5006577;28;20543;-82
2021/06/09 11:19:37;;;;;;;9.60;8.60;;;28.50;95.50;;;;;;5003431;28;20468;-82
2021/06/09 11:22:21;;;;;;;10.93;10.03;;;28.60;96.00;;;;;;4997331;28;20453;-83
2021/06/09 11:25:17;;;;;;;11.87;10.63;;;28.70;96.60;;;;;;4995312;28;20967;-83
2021/06/09 11:27:56;;;;;;;10.57;9.67;;;28.70;96.10;;;;;;5000683;28;20453;-83
2021/06/09 11:30:52;;;;;;;11.60;10.53;;;28.80;95.70;;;;;;4995554;28;22295;-83
2021/06/09 11:33:38;;;;;;;10.60;9.60;;;28.90;95.00;;;;;;4988077;28;21143;-82
2021/06/09 11:36:07;;;;;;;10.77;9.73;;;29.10;95.10;;;;;;4994393;28;20555;-82
2021/06/09 11:38:38;;;;;;;10.80;8.80;;;29.20;95.20;;;;;;5000586;28;21175;-83
2021/06/09 11:41:07;;;;;;;11.23;10.00;;;29.00;95.00;;;;;;5001189;28;20830;-82
2021/06/09 11:43:39;;;;;;;11.13;10.13;;;28.80;95.50;;;;;;5003991;28;20845;-82
2021/06/09 11:46:09;;;;;;;11.20;10.10;;;28.90;95.90;;;;;;5008401;28;20461;-82
2021/06/09 11:48:37;;;;;;;12.67;11.67;;;28.90;96.10;;;;;;5002178;28;20464;-82
2021/06/09 11:51:24;;;;;;;11.53;10.43;;;29.00;95.30;;;;;;4998558;28;20461;-83
2021/06/09 11:53:52;;;;;;;11.37;10.23;;;29.10;95.00;;;;;;4998634;28;20477;-82
2021/06/09 11:56:22;;;;;;;11.93;10.83;;;29.20;94.50;;;;;;4995551;28;20534;-81
2021/06/09 11:58:51;;;;;;;10.67;9.77;;;29.20;93.90;;;;;;4995824;28;20846;-83
2021/06/09 12:01:21;;;;;;;11.30;10.20;;;29.30;94.50;;;;;;5001905;28;20485;-83
2021/06/09 12:04:13;;;;;;;16.97;9.37;;;29.40;94.20;;;;;;5002524;28;20488;-83
2021/06/09 12:06:41;;;;;;;9.70;8.73;;;29.40;92.50;;;;;;4999794;28;20818;-83
2021/06/09 12:09:08;;;;;;;11.53;10.53;;;29.40;92.60;;;;;;5000432;28;20457;-82
2021/06/09 12:11:39;;;;;;;11.97;10.87;;;29.50;92.10;;;;;;4998148;28;20469;-83
2021/06/09 12:14:24;;;;;;;10.40;9.60;;;29.50;92.50;;;;;;4997840;28;20619;-83
2021/06/09 12:16:54;;;;;;;10.50;9.50;;;29.60;92.60;;;;;;4992861;28;20461;-83
2021/06/09 12:19:29;;;;;;;10.97;9.97;;;29.70;92.50;;;;;;4995391;28;20457;-82
2021/06/09 12:22:06;;;;;;;13.23;11.17;;;29.80;92.80;;;;;;5002174;28;20453;-82
2021/06/09 12:24:34;;;;;;;12.23;11.03;;;29.80;93.30;;;;;;4997313;28;20512;-82
2021/06/09 12:27:04;;;;;;;10.57;9.67;;;29.70;93.00;;;;;;4992574;28;20462;-82
2021/06/09 12:29:34;;;;;;;11.90;10.80;;;29.80;92.60;;;;;;4999797;28;20572;-83
2021/06/09 12:32:15;;;;;;;10.13;9.33;;;29.80;92.20;;;;;;4993008;28;20473;-82
2021/06/09 12:34:49;;;;;;;11.13;10.13;;;29.90;92.40;;;;;;4996188;28;20454;-82
2021/06/09 12:37:16;;;;;;;11.40;10.37;;;30.00;92.10;;;;;;4995754;28;20523;-82